Deering, Illinois
Current Conditions -  °F | °C
As of 11:45 AM on Monday 24 Nov 2014 (Local Time) from KMWA Reporting Station
Broken Clouds Broken Clouds  
Wind Chill: 42°   Ceiling: 4200
Heat Index: 46°   Visibility: 10mi
Dew Point: 32°   Wind: 9mph
Humidity: 57%   Direction: 270°W
Pressure: 29.73"   Gusts: NA
Location:  37.9074°N, 88.9501°W
Report Text: KMWA 241745Z 27008KT 10SM SCT031 BKN042 08/00 A2973
Loading
Personal Weather Stations






























Interactive Weather Map New forecast layout! Learn more

10-Day Weather Forecast

Advertisements
Track Severe Weather on mobile